createdAt,value
2023-03-28T00:04:42.209Z,0.30
2023-03-28T00:09:44.988Z,0.28
2023-03-28T00:14:47.996Z,0.22
2023-03-28T00:19:53.767Z,0.34
2023-03-28T00:24:59.065Z,0.55
2023-03-28T00:30:02.834Z,0.72
2023-03-28T00:35:06.776Z,0.96
2023-03-28T00:40:10.247Z,1.11
2023-03-28T00:45:13.182Z,1.16
2023-03-28T00:50:27.780Z,1.14
2023-03-28T00:55:48.066Z,1.06
2023-03-28T01:00:55.105Z,1.16
2023-03-28T01:05:58.470Z,1.38
2023-03-28T01:11:12.575Z,1.29
2023-03-28T01:16:16.359Z,1.20
2023-03-28T01:21:54.173Z,1.29
2023-03-28T01:27:27.752Z,1.46
2023-03-28T01:32:50.394Z,1.63
2023-03-28T01:38:03.341Z,1.78
2023-03-28T01:43:37.424Z,1.93
2023-03-28T01:49:16.305Z,2.10
2023-03-28T01:54:26.606Z,2.20
2023-03-28T01:59:48.603Z,2.22
2023-03-28T02:05:03.286Z,2.24
2023-03-28T02:10:09.192Z,2.05
2023-03-28T02:15:31.968Z,2.57
2023-03-28T02:21:00.264Z,2.98
2023-03-28T02:26:29.117Z,3.14
2023-03-28T02:31:50.620Z,3.12
2023-03-28T02:36:57.846Z,3.44
2023-03-28T02:42:15.225Z,3.87
2023-03-28T02:47:39.207Z,4.47
2023-03-28T02:52:52.443Z,4.89
2023-03-28T02:58:00.341Z,5.24
2023-03-28T03:03:08.225Z,5.32
2023-03-28T03:08:11.992Z,5.96
2023-03-28T03:13:17.018Z,6.36
2023-03-28T03:18:19.844Z,6.36
2023-03-28T03:23:22.610Z,6.11
2023-03-28T03:28:29.540Z,5.79
2023-03-28T03:33:32.826Z,5.26
2023-03-28T03:38:40.083Z,5.17
2023-03-28T03:43:45.217Z,5.23
2023-03-28T03:48:50.460Z,5.02
2023-03-28T03:53:54.033Z,5.16
2023-03-28T03:59:05.026Z,5.20
2023-03-28T04:04:11.922Z,5.01
2023-03-28T04:09:34.594Z,4.83
2023-03-28T04:14:39.517Z,5.02
2023-03-28T04:20:13.352Z,5.16
2023-03-28T04:25:35.752Z,5.32
2023-03-28T04:30:42.011Z,5.20
2023-03-28T04:36:06.184Z,5.04
2023-03-28T04:41:09.621Z,4.85
2023-03-28T04:46:38.231Z,4.92
2023-03-28T04:51:50.978Z,4.59
2023-03-28T04:56:53.875Z,4.49
2023-03-28T05:02:05.167Z,4.46
2023-03-28T05:07:28.445Z,4.15
2023-03-28T05:12:31.320Z,3.90
2023-03-28T05:17:38.690Z,3.93
2023-03-28T05:23:06.442Z,4.02
2023-03-28T05:28:12.173Z,4.36
2023-03-28T05:33:23.351Z,4.67
2023-03-28T05:38:27.046Z,4.44
2023-03-28T05:43:33.627Z,4.25
2023-03-28T05:48:37.216Z,4.36
2023-03-28T05:53:39.885Z,4.60
2023-03-28T05:58:45.618Z,4.31
2023-03-28T06:03:48.380Z,4.30
2023-03-28T06:08:51.364Z,4.53
2023-03-28T06:13:54.630Z,4.90
2023-03-28T06:19:06.870Z,5.31
2023-03-28T06:24:18.095Z,5.56
2023-03-28T06:29:22.176Z,5.75
2023-03-28T06:34:33.890Z,5.96
2023-03-28T06:39:37.836Z,6.00
2023-03-28T06:44:41.080Z,5.65
2023-03-28T06:49:54.056Z,5.45
2023-03-28T06:54:59.528Z,5.66
2023-03-28T07:00:02.504Z,5.86
2023-03-28T07:05:25.215Z,6.27
2023-03-28T07:10:28.206Z,6.51
2023-03-28T07:15:31.205Z,6.78
2023-03-28T07:20:34.576Z,6.95
2023-03-28T07:25:37.559Z,7.11
2023-03-28T07:30:40.634Z,6.99
2023-03-28T07:35:43.452Z,7.04
2023-03-28T07:40:48.957Z,7.56
2023-03-28T07:45:52.265Z,7.97
2023-03-28T07:50:55.757Z,8.12
2023-03-28T07:55:59.683Z,8.05
2023-03-28T08:01:13.051Z,7.99
2023-03-28T08:06:30.923Z,7.79
2023-03-28T08:11:36.261Z,7.66
2023-03-28T08:16:39.362Z,7.72
2023-03-28T08:21:42.202Z,7.47
2023-03-28T08:26:47.432Z,7.24
2023-03-28T08:31:52.027Z,7.18
2023-03-28T08:36:55.005Z,7.27
2023-03-28T08:42:27.613Z,7.47
2023-03-28T08:47:33.862Z,7.38
2023-03-28T08:52:36.920Z,7.31
2023-03-28T08:57:42.790Z,7.11
2023-03-28T09:02:45.407Z,7.11
2023-03-28T09:08:08.344Z,7.13
2023-03-28T09:13:14.921Z,7.18
2023-03-28T09:18:57.871Z,7.25
2023-03-28T09:24:21.881Z,7.33
2023-03-28T09:29:40.534Z,7.41
2023-03-28T09:34:46.649Z,7.55
2023-03-28T09:39:53.896Z,7.67
2023-03-28T09:45:35.454Z,7.74
2023-03-28T09:50:59.056Z,7.46
2023-03-28T09:56:06.473Z,7.51
2023-03-28T10:01:44.450Z,7.89
2023-03-28T10:07:11.556Z,7.84
2023-03-28T10:12:44.022Z,7.57
2023-03-28T10:17:46.914Z,7.76
2023-03-28T10:22:55.104Z,7.80
2023-03-28T10:28:00.998Z,7.85
2023-03-28T10:33:07.152Z,7.86
2023-03-28T10:38:48.109Z,7.79
2023-03-28T10:44:19.516Z,7.72
2023-03-28T10:49:51.143Z,7.74
2023-03-28T10:55:18.667Z,7.72
2023-03-28T11:00:42.430Z,7.46
2023-03-28T11:06:01.725Z,7.43
2023-03-28T11:11:30.375Z,7.58
2023-03-28T11:16:54.786Z,7.74
2023-03-28T11:22:33.368Z,7.39
2023-03-28T11:27:42.959Z,7.16
2023-03-28T11:33:14.403Z,7.03
2023-03-28T11:38:22.636Z,7.11
2023-03-28T11:43:35.652Z,6.95
2023-03-28T11:49:18.528Z,6.81
2023-03-28T11:54:36.991Z,6.51
2023-03-28T11:59:43.217Z,6.44
2023-03-28T12:05:10.710Z,6.42
2023-03-28T12:10:38.548Z,6.41
2023-03-28T12:16:12.345Z,6.07
2023-03-28T12:21:41.948Z,5.88
2023-03-28T12:27:08.037Z,5.67
2023-03-28T12:32:27.747Z,5.54
2023-03-28T12:38:23.064Z,5.31
2023-03-28T12:43:56.097Z,5.09
2023-03-28T12:49:11.657Z,4.93
2023-03-28T12:54:17.517Z,4.83
2023-03-28T12:59:48.429Z,4.67
2023-03-28T13:05:19.051Z,4.66
2023-03-28T13:11:08.611Z,4.45
2023-03-28T13:16:17.480Z,4.47
2023-03-28T13:21:43.617Z,4.42
2023-03-28T13:26:57.912Z,4.32
2023-03-28T13:32:04.462Z,4.30
2023-03-28T13:37:42.189Z,4.36
2023-03-28T13:42:58.308Z,4.13
2023-03-28T13:48:12.654Z,3.96
2023-03-28T13:53:16.123Z,3.84
2023-03-28T13:58:19.346Z,3.78
2023-03-28T14:03:22.280Z,3.74
2023-03-28T14:08:26.143Z,3.86
2023-03-28T14:13:32.294Z,4.05
2023-03-28T14:18:46.460Z,4.18
2023-03-28T14:23:57.475Z,4.22
2023-03-28T14:29:15.378Z,4.10
2023-03-28T14:34:21.749Z,4.22
2023-03-28T14:39:25.271Z,4.17
2023-03-28T14:44:29.236Z,4.02
2023-03-28T14:49:33.083Z,3.87
2023-03-28T14:54:39.767Z,3.82
2023-03-28T14:59:45.339Z,3.78
2023-03-28T15:04:48.610Z,3.76
2023-03-28T15:10:13.059Z,3.85
2023-03-28T15:15:25.586Z,3.78
2023-03-28T15:20:32.438Z,3.69
2023-03-28T15:25:36.189Z,3.59
2023-03-28T15:30:44.024Z,3.62
2023-03-28T15:35:47.279Z,3.59
2023-03-28T15:40:51.740Z,3.59
2023-03-28T15:46:02.365Z,3.57
2023-03-28T15:51:07.224Z,3.57
2023-03-28T15:56:24.421Z,3.46
2023-03-28T16:01:32.450Z,3.44
2023-03-28T16:06:44.167Z,3.47
2023-03-28T16:11:48.132Z,3.32
2023-03-28T16:17:29.243Z,3.55
2023-03-28T16:22:45.569Z,3.54
2023-03-28T16:27:48.563Z,3.47
2023-03-28T16:32:51.608Z,3.41
2023-03-28T16:37:55.535Z,3.43
2023-03-28T16:42:58.911Z,3.47
2023-03-28T16:48:01.832Z,3.50
2023-03-28T16:53:06.849Z,3.60
2023-03-28T16:58:09.585Z,3.58
2023-03-28T17:03:18.181Z,3.52
2023-03-28T17:08:22.619Z,3.45
2023-03-28T17:13:25.471Z,3.36
2023-03-28T17:18:28.440Z,3.30
2023-03-28T17:23:32.046Z,3.21
2023-03-28T17:28:39.263Z,3.12
2023-03-28T17:33:42.237Z,3.25
2023-03-28T17:38:45.216Z,3.19
2023-03-28T17:43:47.925Z,3.20
2023-03-28T17:48:51.101Z,3.27
2023-03-28T17:53:54.540Z,3.24
2023-03-28T17:58:59.899Z,3.31
2023-03-28T18:04:02.900Z,3.29
2023-03-28T18:09:31.773Z,3.34
2023-03-28T18:14:34.658Z,3.34
2023-03-28T18:19:37.548Z,3.33
2023-03-28T18:24:40.369Z,3.36
2023-03-28T18:29:43.120Z,3.44
2023-03-28T18:34:45.808Z,3.41
2023-03-28T18:39:49.026Z,3.50
2023-03-28T18:44:51.695Z,3.52
2023-03-28T18:49:54.794Z,3.54
2023-03-28T18:54:57.641Z,3.59
2023-03-28T19:00:00.680Z,3.60
2023-03-28T19:05:03.493Z,3.62
2023-03-28T19:10:07.718Z,3.61
2023-03-28T19:15:11.288Z,3.54
2023-03-28T19:20:14.047Z,3.53
2023-03-28T19:25:16.900Z,3.50
2023-03-28T19:30:19.848Z,3.33
2023-03-28T19:35:23.111Z,3.12
2023-03-28T19:40:26.994Z,3.07
2023-03-28T19:45:30.205Z,3.08
2023-03-28T19:50:33.947Z,3.21
2023-03-28T19:55:36.814Z,3.26
2023-03-28T20:00:39.563Z,3.21
2023-03-28T20:05:47.388Z,3.19
2023-03-28T20:10:51.688Z,3.05
2023-03-28T20:15:55.828Z,2.75
2023-03-28T20:21:01.081Z,2.37
2023-03-28T20:26:15.805Z,2.20
2023-03-28T20:31:19.383Z,2.00
2023-03-28T20:36:22.872Z,2.10
2023-03-28T20:41:27.343Z,2.17
2023-03-28T20:46:32.991Z,2.27
2023-03-28T20:51:39.298Z,2.31
2023-03-28T20:56:43.075Z,2.28
2023-03-28T21:01:46.373Z,2.16
2023-03-28T21:06:50.374Z,2.13
2023-03-28T21:11:53.234Z,2.10
2023-03-28T21:16:58.297Z,2.13
2023-03-28T21:22:01.701Z,2.15
2023-03-28T21:27:04.843Z,1.98
2023-03-28T21:32:07.829Z,1.90
2023-03-28T21:37:11.404Z,1.90
2023-03-28T21:42:14.085Z,1.70
2023-03-28T21:47:16.850Z,1.88
2023-03-28T21:52:20.001Z,1.88
2023-03-28T21:57:22.910Z,1.79
2023-03-28T22:02:25.923Z,1.75
2023-03-28T22:07:28.610Z,1.70
2023-03-28T22:12:32.841Z,1.66
2023-03-28T22:17:38.809Z,1.76
2023-03-28T22:22:48.846Z,1.84
2023-03-28T22:27:53.224Z,1.91
2023-03-28T22:32:56.032Z,1.89
2023-03-28T22:37:59.262Z,1.83
2023-03-28T22:43:03.509Z,1.88
2023-03-28T22:48:14.711Z,1.95
2023-03-28T22:53:18.252Z,1.97
2023-03-28T22:58:22.900Z,2.11
2023-03-28T23:03:25.712Z,2.08
2023-03-28T23:08:28.726Z,2.03
2023-03-28T23:13:31.577Z,1.92
2023-03-28T23:18:34.519Z,1.75
2023-03-28T23:23:37.195Z,1.68
2023-03-28T23:28:40.082Z,1.59
2023-03-28T23:33:44.961Z,1.51
2023-03-28T23:38:48.473Z,1.58
2023-03-28T23:43:51.362Z,1.57
2023-03-28T23:48:54.074Z,1.49
2023-03-28T23:53:56.835Z,1.58
2023-03-28T23:58:59.524Z,1.52
